Time;durP1;ratioP1;P1;durP2;ratioP2;P2;SDS_P1;SDS_P2;PMS_P1;PMS_P2;Temp;Humidity;BMP_temperature;BMP_pressure;BME280_temperature;BME280_humidity;BME280_pressure;Samples;Min_cycle;Max_cycle;Signal;HPM_P1;HPM_P2
2022/06/05 00:00:21;;;;;;;10.15;6.85;;;11.60;99.90;;;;;;5073250;28;20036;-74
2022/06/05 00:03:08;;;;;;;12.25;6.90;;;11.60;99.90;;;;;;5074063;28;20098;-75
2022/06/05 00:05:46;;;;;;;11.35;7.47;;;11.60;99.90;;;;;;5073223;28;20048;-77
2022/06/05 00:08:33;;;;;;;11.68;7.40;;;11.60;99.90;;;;;;5073193;28;20368;-73
2022/06/05 00:11:00;;;;;;;9.77;7.57;;;11.60;99.90;;;;;;5073202;28;20123;-74
2022/06/05 00:13:41;;;;;;;9.93;6.75;;;11.60;99.90;;;;;;5072962;28;20491;-76
2022/06/05 00:16:08;;;;;;;13.15;7.15;;;11.50;99.90;;;;;;5073259;28;20084;-78
2022/06/05 00:18:36;;;;;;;11.30;6.07;;;11.50;99.90;;;;;;5071981;28;20048;-74
2022/06/05 00:21:02;;;;;;;13.05;7.03;;;11.60;99.90;;;;;;5073224;28;20447;-75
2022/06/05 00:23:30;;;;;;;11.85;6.85;;;11.50;99.90;;;;;;5088383;28;20117;-74
2022/06/05 00:26:14;;;;;;;9.82;6.95;;;11.50;99.90;;;;;;5073101;28;20124;-76
2022/06/05 00:29:17;;;;;;;13.35;6.90;;;11.60;99.90;;;;;;5072725;28;20111;-74
2022/06/05 00:32:01;;;;;;;8.95;6.60;;;11.50;99.90;;;;;;5071618;28;20129;-75
2022/06/05 00:34:27;;;;;;;12.05;7.05;;;11.50;99.90;;;;;;5072944;28;20106;-80
2022/06/05 00:37:23;;;;;;;11.07;6.45;;;11.50;99.90;;;;;;5071569;28;20056;-74
2022/06/05 00:39:59;;;;;;;11.57;7.88;;;11.50;99.90;;;;;;5071730;28;20048;-73
2022/06/05 00:42:29;;;;;;;12.70;7.57;;;11.50;99.90;;;;;;5073019;28;20041;-78
2022/06/05 00:45:01;;;;;;;10.98;6.93;;;11.50;99.90;;;;;;5073244;28;20484;-76
2022/06/05 00:47:31;;;;;;;7.95;7.13;;;11.50;99.90;;;;;;5072385;28;20067;-75
2022/06/05 00:50:18;;;;;;;10.80;7.10;;;11.50;99.90;;;;;;5071339;28;20048;-76
2022/06/05 00:52:48;;;;;;;9.43;6.90;;;11.50;99.90;;;;;;5072659;28;20048;-74
2022/06/05 00:55:14;;;;;;;14.00;7.80;;;11.50;99.90;;;;;;5088535;28;20464;-75
2022/06/05 00:57:40;;;;;;;10.15;7.05;;;11.50;99.90;;;;;;5073069;28;20045;-74
2022/06/05 01:00:17;;;;;;;12.73;8.02;;;11.50;99.90;;;;;;5072470;28;20468;-75
2022/06/05 01:02:47;;;;;;;11.65;7.72;;;11.50;99.90;;;;;;5072710;28;20056;-76
2022/06/05 01:05:14;;;;;;;12.38;7.40;;;11.50;99.90;;;;;;5072451;28;20628;-74
2022/06/05 01:07:40;;;;;;;13.20;8.27;;;11.50;99.90;;;;;;5072386;28;20040;-79
2022/06/05 01:10:07;;;;;;;12.38;7.93;;;11.40;99.90;;;;;;5071717;28;20055;-75
2022/06/05 01:13:02;;;;;;;14.70;8.27;;;11.40;99.90;;;;;;5072285;28;20049;-78
2022/06/05 01:15:53;;;;;;;11.77;7.20;;;11.40;99.90;;;;;;5072621;28;20040;-74
2022/06/05 01:18:26;;;;;;;11.18;6.82;;;11.40;99.90;;;;;;5072551;28;20081;-75
2022/06/05 01:21:08;;;;;;;14.77;8.48;;;11.40;99.90;;;;;;5072673;28;20060;-73
2022/06/05 01:23:47;;;;;;;12.20;8.85;;;11.50;99.90;;;;;;5072886;28;20048;-74
2022/06/05 01:26:23;;;;;;;10.70;7.32;;;11.50;99.90;;;;;;5072207;28;20055;-76
2022/06/05 01:28:54;;;;;;;9.98;7.68;;;11.50;99.90;;;;;;5072755;28;20041;-76
2022/06/05 01:31:42;;;;;;;11.30;7.60;;;11.50;99.90;;;;;;5072127;28;20048;-75
2022/06/05 01:34:33;;;;;;;10.48;8.32;;;11.50;99.90;;;;;;5074886;28;20047;-75
2022/06/05 01:37:15;;;;;;;18.30;7.75;;;11.50;99.90;;;;;;5076138;28;20509;-77
2022/06/05 01:40:04;;;;;;;11.30;7.28;;;11.50;99.90;;;;;;5076453;28;20040;-75
2022/06/05 01:42:34;;;;;;;12.38;8.43;;;11.50;99.90;;;;;;5070416;28;20106;-77
2022/06/05 01:45:09;;;;;;;11.73;8.25;;;11.50;99.90;;;;;;5076471;28;20132;-75
2022/06/05 01:47:39;;;;;;;9.23;7.30;;;11.50;99.90;;;;;;5074654;28;20158;-75
2022/06/05 01:50:21;;;;;;;13.10;7.95;;;11.50;99.90;;;;;;5076071;28;20056;-76
2022/06/05 01:52:55;;;;;;;16.92;8.27;;;11.60;99.90;;;;;;5076168;28;20048;-78
2022/06/05 01:55:35;;;;;;;16.35;8.13;;;11.60;99.90;;;;;;5076018;28;20051;-76
2022/06/05 01:58:04;;;;;;;13.93;7.97;;;11.60;99.90;;;;;;5075947;28;20495;-76
2022/06/05 02:00:30;;;;;;;15.60;8.05;;;11.60;99.90;;;;;;5075767;28;20056;-74
2022/06/05 02:03:11;;;;;;;13.20;8.02;;;11.60;99.90;;;;;;5075684;28;20120;-75
2022/06/05 02:06:01;;;;;;;13.30;7.20;;;11.60;99.90;;;;;;5074568;28;20048;-74
2022/06/05 02:08:34;;;;;;;10.00;7.72;;;11.60;99.90;;;;;;5075782;28;20048;-78
2022/06/05 02:11:20;;;;;;;9.32;6.82;;;11.60;99.90;;;;;;5074917;28;20051;-77
2022/06/05 02:13:47;;;;;;;17.52;8.40;;;11.60;99.90;;;;;;5076015;28;20094;-74
2022/06/05 02:16:13;;;;;;;10.15;6.38;;;11.60;99.90;;;;;;5075180;28;20476;-75
2022/06/05 02:18:39;;;;;;;12.38;7.18;;;11.60;99.90;;;;;;5075369;28;20048;-74
2022/06/05 02:21:05;;;;;;;11.32;8.05;;;11.60;99.90;;;;;;5075229;28;20062;-76
2022/06/05 02:23:36;;;;;;;12.38;8.30;;;11.60;99.90;;;;;;5073995;28;20102;-75
2022/06/05 02:26:04;;;;;;;13.07;8.05;;;11.60;99.90;;;;;;5075202;28;20578;-73
2022/06/05 02:28:30;;;;;;;10.82;8.18;;;11.60;99.90;;;;;;5075171;28;20049;-74
2022/06/05 02:31:02;;;;;;;11.57;7.82;;;11.50;99.90;;;;;;5075162;28;20041;-73
2022/06/05 02:33:30;;;;;;;14.85;10.02;;;11.50;99.90;;;;;;5075049;28;20044;-75
2022/06/05 02:36:14;;;;;;;11.55;8.00;;;11.50;99.90;;;;;;5074885;28;20064;-75
2022/06/05 02:39:01;;;;;;;18.02;8.32;;;11.60;99.90;;;;;;5075121;28;20047;-74
2022/06/05 02:41:41;;;;;;;11.10;6.93;;;11.50;99.90;;;;;;5075051;28;20044;-76
2022/06/05 02:44:29;;;;;;;13.38;7.60;;;11.50;99.90;;;;;;5074517;28;20044;-79
2022/06/05 02:47:25;;;;;;;10.88;7.70;;;11.50;99.90;;;;;;5074192;28;20090;-77
2022/06/05 02:50:00;;;;;;;16.08;8.68;;;11.60;99.90;;;;;;5074811;28;20049;-75
2022/06/05 02:52:32;;;;;;;12.27;8.00;;;11.60;99.90;;;;;;5074729;28;20048;-75
2022/06/05 02:55:20;;;;;;;15.25;9.88;;;11.60;99.90;;;;;;5075159;28;20048;-74
2022/06/05 02:57:46;;;;;;;15.55;9.35;;;11.60;99.90;;;;;;5074536;28;20037;-75
2022/06/05 03:00:19;;;;;;;18.90;10.07;;;11.60;99.90;;;;;;5074511;28;20048;-74
2022/06/05 03:05:29;;;;;;;14.68;8.88;;;11.60;99.90;;;;;;5074294;28;20083;-76
2022/06/05 03:07:55;;;;;;;13.10;9.23;;;11.60;99.90;;;;;;5074415;28;20049;-78
2022/06/05 03:10:21;;;;;;;13.90;9.68;;;11.60;99.90;;;;;;5074742;28;20044;-78
2022/06/05 03:12:47;;;;;;;17.67;9.32;;;11.60;99.90;;;;;;5074421;28;20123;-76
2022/06/05 03:15:15;;;;;;;16.83;9.30;;;11.60;99.90;;;;;;5074413;28;20527;-74
2022/06/05 03:17:42;;;;;;;18.85;9.88;;;11.70;99.90;;;;;;5074224;28;20048;-74
2022/06/05 03:20:09;;;;;;;16.75;9.43;;;11.70;99.90;;;;;;5074399;28;20061;-77
2022/06/05 03:22:35;;;;;;;15.50;10.10;;;11.70;99.90;;;;;;5074178;28;20113;-77
2022/06/05 03:25:01;;;;;;;17.40;10.63;;;11.70;99.90;;;;;;5073520;28;20048;-76
2022/06/05 03:27:29;;;;;;;15.80;9.52;;;11.80;99.90;;;;;;5074256;28;20040;-76
2022/06/05 03:29:56;;;;;;;14.90;8.98;;;11.80;99.90;;;;;;5074420;28;20045;-75
2022/06/05 03:32:22;;;;;;;22.20;9.95;;;11.80;99.90;;;;;;5073088;28;20045;-74
2022/06/05 03:34:48;;;;;;;18.20;10.40;;;11.80;99.90;;;;;;5073262;28;20137;-74
2022/06/05 03:37:14;;;;;;;16.20;9.65;;;11.90;99.90;;;;;;5073482;28;20048;-77
2022/06/05 03:39:40;;;;;;;19.13;9.60;;;11.90;99.90;;;;;;5073110;28;20076;-74
2022/06/05 03:42:06;;;;;;;18.48;10.32;;;11.90;99.90;;;;;;5073004;28;20052;-75
2022/06/05 03:44:38;;;;;;;18.27;11.02;;;11.90;99.90;;;;;;5073776;28;20059;-73
2022/06/05 03:47:05;;;;;;;17.55;9.68;;;11.90;99.90;;;;;;5073702;28;20040;-77
2022/06/05 03:49:31;;;;;;;16.27;9.60;;;12.00;99.90;;;;;;5073530;28;20040;-77
2022/06/05 03:51:57;;;;;;;18.75;10.75;;;12.00;99.90;;;;;;5089436;28;20055;-74
2022/06/05 03:54:23;;;;;;;20.33;11.27;;;12.00;99.90;;;;;;5073544;28;20044;-77
2022/06/05 03:56:49;;;;;;;14.63;9.02;;;12.00;99.90;;;;;;5073284;28;20041;-76
2022/06/05 03:59:15;;;;;;;19.85;10.43;;;12.00;99.90;;;;;;5073428;28;20052;-77
2022/06/05 04:01:41;;;;;;;15.98;9.82;;;12.10;99.90;;;;;;5072745;28;20077;-76
2022/06/05 04:04:07;;;;;;;19.83;10.80;;;12.10;99.90;;;;;;5073450;28;20045;-77
2022/06/05 04:06:33;;;;;;;17.75;11.00;;;12.20;99.90;;;;;;5073336;28;20545;-76
2022/06/05 04:09:05;;;;;;;16.13;10.50;;;12.20;99.90;;;;;;5072366;28;20049;-74
2022/06/05 04:11:32;;;;;;;16.25;9.73;;;12.20;99.90;;;;;;5073361;28;20449;-76
2022/06/05 04:13:58;;;;;;;24.38;10.98;;;12.20;99.90;;;;;;5073473;28;20051;-75
2022/06/05 04:16:28;;;;;;;14.57;9.98;;;12.30;99.90;;;;;;5072185;28;20170;-76
2022/06/05 04:18:54;;;;;;;17.88;9.07;;;12.30;99.90;;;;;;5071851;28;20480;-74
2022/06/05 04:21:24;;;;;;;22.48;10.35;;;12.40;99.90;;;;;;5072991;28;20044;-76
2022/06/05 04:23:51;;;;;;;15.50;9.07;;;12.40;99.90;;;;;;5073350;28;20048;-77
2022/06/05 04:26:20;;;;;;;19.50;10.75;;;12.50;99.90;;;;;;5073346;28;20093;-76
2022/06/05 04:28:46;;;;;;;14.10;9.57;;;12.50;99.90;;;;;;5071762;28;20420;-75
2022/06/05 04:31:27;;;;;;;14.40;9.70;;;12.60;99.90;;;;;;5073301;28;20044;-73
2022/06/05 04:33:55;;;;;;;12.48;9.38;;;12.70;99.90;;;;;;5072863;28;20040;-77
2022/06/05 04:36:21;;;;;;;15.00;10.80;;;12.70;99.90;;;;;;5072020;28;20052;-76
2022/06/05 04:38:47;;;;;;;17.25;11.25;;;12.80;99.90;;;;;;5072818;28;20123;-75
2022/06/05 04:41:13;;;;;;;15.13;9.88;;;12.90;99.90;;;;;;5072734;28;20045;-76
2022/06/05 04:43:41;;;;;;;18.95;10.15;;;13.00;99.90;;;;;;5072727;28;20055;-73
2022/06/05 04:46:07;;;;;;;14.18;9.63;;;13.00;99.90;;;;;;5071450;28;20045;-76
2022/06/05 04:48:34;;;;;;;18.85;10.27;;;13.10;99.90;;;;;;5072825;28;20056;-78
2022/06/05 04:51:04;;;;;;;16.45;10.15;;;13.10;99.90;;;;;;5073061;28;20094;-78
2022/06/05 04:53:30;;;;;;;16.00;10.45;;;13.20;99.90;;;;;;5073209;28;20045;-77
2022/06/05 04:55:55;;;;;;;19.75;9.95;;;13.20;99.90;;;;;;5072847;28;20070;-80
2022/06/05 04:58:21;;;;;;;17.15;10.20;;;13.30;99.90;;;;;;5088368;28;20457;-75
2022/06/05 05:00:47;;;;;;;25.35;11.55;;;13.40;99.90;;;;;;5072732;28;20052;-77
2022/06/05 05:03:12;;;;;;;16.23;8.77;;;13.40;99.90;;;;;;5055475;28;20500;-75
2022/06/05 05:05:38;;;;;;;12.27;8.75;;;13.50;99.90;;;;;;5071262;28;20480;-77
2022/06/05 05:08:04;;;;;;;21.75;10.05;;;13.60;99.90;;;;;;5073785;28;20051;-78
2022/06/05 05:10:30;;;;;;;17.85;9.40;;;13.70;99.90;;;;;;5076682;28;20049;-77
2022/06/05 05:12:55;;;;;;;13.75;9.07;;;13.80;99.90;;;;;;5076555;28;20098;-79
2022/06/05 05:15:21;;;;;;;13.80;8.75;;;13.90;99.90;;;;;;5076855;28;20048;-74
2022/06/05 05:17:47;;;;;;;15.57;9.73;;;14.10;99.90;;;;;;5076471;28;20045;-77
2022/06/05 05:20:13;;;;;;;14.02;8.73;;;14.20;99.90;;;;;;5075974;28;20107;-74
2022/06/05 05:22:39;;;;;;;16.85;9.70;;;14.30;99.90;;;;;;5076482;28;20540;-75
2022/06/05 05:25:08;;;;;;;14.85;8.43;;;14.50;99.90;;;;;;5075325;28;20088;-74
2022/06/05 05:27:34;;;;;;;10.85;7.68;;;14.50;99.90;;;;;;5091560;28;20056;-75
2022/06/05 05:30:00;;;;;;;15.25;8.60;;;14.60;99.90;;;;;;5076438;28;20101;-78
2022/06/05 05:32:26;;;;;;;14.30;8.35;;;14.70;99.90;;;;;;5092254;28;20049;-75
2022/06/05 05:34:52;;;;;;;13.73;8.90;;;14.90;99.90;;;;;;5075527;28;20044;-75
2022/06/05 05:37:18;;;;;;;13.15;8.20;;;14.80;99.90;;;;;;5075863;28;20054;-78
2022/06/05 05:42:30;;;;;;;17.15;9.43;;;14.80;99.90;;;;;;5076164;28;20049;-74
2022/06/05 05:44:57;;;;;;;13.40;9.10;;;14.90;99.90;;;;;;5074850;28;20052;-76
2022/06/05 05:47:26;;;;;;;11.13;8.40;;;15.00;99.90;;;;;;5076339;28;20063;-75
2022/06/05 05:49:58;;;;;;;11.80;7.57;;;15.00;99.90;;;;;;5075629;28;20040;-75
2022/06/05 05:52:25;;;;;;;13.70;8.95;;;15.00;99.90;;;;;;5075611;28;20044;-77
2022/06/05 05:54:51;;;;;;;11.27;8.02;;;15.00;99.90;;;;;;5075528;28;20056;-76
2022/06/05 05:57:18;;;;;;;13.07;8.57;;;15.10;99.90;;;;;;5075439;28;20044;-75
2022/06/05 05:59:43;;;;;;;13.60;7.55;;;15.10;99.90;;;;;;5075181;28;20055;-74
2022/06/05 06:02:18;;;;;;;13.27;9.25;;;15.20;99.90;;;;;;5075379;28;20127;-76
2022/06/05 06:04:45;;;;;;;15.20;8.70;;;15.20;99.90;;;;;;5075146;28;20049;-78
2022/06/05 06:07:11;;;;;;;15.55;8.52;;;15.30;99.90;;;;;;5074973;28;20040;-74
2022/06/05 06:09:38;;;;;;;14.90;9.48;;;15.40;99.90;;;;;;5074635;28;20123;-75
2022/06/05 06:12:03;;;;;;;11.82;7.80;;;15.50;99.90;;;;;;5075689;28;20044;-76
2022/06/05 06:14:29;;;;;;;12.25;7.63;;;15.50;99.90;;;;;;5074714;28;20372;-77
2022/06/05 06:16:55;;;;;;;14.57;8.65;;;15.60;99.90;;;;;;5075280;28;20041;-78
2022/06/05 06:19:20;;;;;;;14.18;9.05;;;15.70;99.90;;;;;;5073378;28;20048;-75
2022/06/05 06:21:46;;;;;;;13.15;9.25;;;15.80;99.90;;;;;;5075798;28;20072;-78
2022/06/05 06:24:13;;;;;;;14.60;8.52;;;15.90;99.90;;;;;;5073830;28;20048;-75
2022/06/05 06:26:40;;;;;;;13.45;9.55;;;16.10;99.90;;;;;;5075312;28;20036;-75
2022/06/05 06:29:07;;;;;;;17.48;9.13;;;16.20;99.90;;;;;;5075034;28;20051;-77
2022/06/05 06:31:35;;;;;;;12.88;8.50;;;16.40;99.90;;;;;;5074950;28;20110;-75
2022/06/05 06:34:01;;;;;;;12.18;8.52;;;16.50;99.90;;;;;;5074885;28;20057;-79
2022/06/05 06:36:28;;;;;;;14.00;9.68;;;16.70;99.90;;;;;;5074596;28;20501;-79
2022/06/05 06:38:54;;;;;;;14.38;9.63;;;17.00;99.90;;;;;;5075037;28;20101;-75
2022/06/05 06:41:20;;;;;;;12.70;8.05;;;17.20;99.90;;;;;;5073454;28;20056;-77
2022/06/05 06:43:47;;;;;;;12.48;8.60;;;17.50;99.90;;;;;;5074492;28;20066;-77
2022/06/05 06:46:14;;;;;;;15.18;9.27;;;17.60;99.90;;;;;;5074405;28;20036;-75
2022/06/05 06:48:41;;;;;;;10.68;8.32;;;17.50;99.90;;;;;;5074590;28;20044;-76
2022/06/05 06:51:07;;;;;;;14.15;8.48;;;17.50;99.90;;;;;;5074722;28;20082;-77
2022/06/05 06:53:35;;;;;;;14.20;8.90;;;17.60;99.90;;;;;;5074476;28;20052;-76
2022/06/05 06:56:07;;;;;;;12.63;8.65;;;17.60;99.90;;;;;;5074690;28;20041;-75
2022/06/05 06:58:33;;;;;;;17.45;9.40;;;17.70;99.90;;;;;;5074384;28;20048;-77
2022/06/05 07:00:59;;;;;;;13.57;8.27;;;18.00;99.90;;;;;;5074434;28;20094;-75
2022/06/05 07:03:25;;;;;;;14.32;8.65;;;18.20;99.90;;;;;;5073916;28;20048;-77
2022/06/05 07:05:50;;;;;;;12.20;8.00;;;18.30;99.90;;;;;;5074078;28;20135;-76
2022/06/05 07:08:16;;;;;;;11.00;8.02;;;18.60;99.90;;;;;;5073843;28;20044;-75
2022/06/05 07:10:43;;;;;;;13.30;8.10;;;18.70;99.90;;;;;;5074208;28;20061;-74
2022/06/05 07:13:10;;;;;;;10.10;7.85;;;19.10;99.90;;;;;;5074560;28;20079;-75
2022/06/05 07:15:35;;;;;;;9.57;7.35;;;19.30;99.90;;;;;;5074265;28;20049;-73
2022/06/05 07:18:03;;;;;;;12.00;8.32;;;19.70;99.90;;;;;;5072982;28;20569;-74
2022/06/05 07:20:32;;;;;;;11.27;9.07;;;20.00;99.90;;;;;;5074048;28;20056;-75
2022/06/05 07:22:58;;;;;;;12.32;7.93;;;20.00;99.90;;;;;;5074064;28;20049;-74
2022/06/05 07:25:24;;;;;;;12.45;8.32;;;20.20;99.90;;;;;;5073979;28;20098;-74
2022/06/05 07:27:49;;;;;;;11.07;8.45;;;20.40;99.90;;;;;;5073899;28;20106;-75
2022/06/05 07:30:15;;;;;;;10.45;8.27;;;20.70;99.90;;;;;;5089040;28;20131;-74
2022/06/05 07:32:41;;;;;;;10.15;8.02;;;20.90;99.90;;;;;;5074196;28;20044;-73
2022/06/05 07:35:07;;;;;;;9.48;7.18;;;21.30;99.90;;;;;;5073044;28;20458;-75
2022/06/05 07:37:33;;;;;;;9.18;7.30;;;21.50;99.90;;;;;;5089513;28;20526;-72
2022/06/05 07:39:59;;;;;;;10.13;6.72;;;21.90;99.90;;;;;;5074227;28;20048;-74
2022/06/05 07:42:25;;;;;;;13.82;7.20;;;22.20;99.90;;;;;;5074065;28;20186;-76
2022/06/05 07:44:50;;;;;;;10.40;6.85;;;22.60;99.90;;;;;;5074357;28;20047;-74
2022/06/05 07:47:16;;;;;;;8.40;6.80;;;22.50;99.90;;;;;;5073514;28;20052;-73
2022/06/05 07:49:42;;;;;;;7.55;6.50;;;22.60;99.90;;;;;;5073485;28;20043;-73
2022/06/05 07:54:54;;;;;;;9.93;7.28;;;22.10;98.70;;;;;;5073670;28;20059;-75
2022/06/05 07:57:20;;;;;;;7.00;6.28;;;22.10;99.80;;;;;;5072455;28;20037;-75
2022/06/05 07:59:48;;;;;;;7.97;6.88;;;22.40;99.40;;;;;;5089876;28;20120;-74
2022/06/05 08:02:21;;;;;;;8.27;6.82;;;22.40;97.80;;;;;;5073512;28;20040;-75
2022/06/05 08:04:48;;;;;;;7.88;6.60;;;22.50;98.40;;;;;;5073829;28;20078;-73
2022/06/05 08:07:16;;;;;;;8.75;7.15;;;22.80;97.70;;;;;;5073383;28;20041;-74
2022/06/05 08:09:43;;;;;;;8.57;6.93;;;22.90;98.10;;;;;;5072188;28;20088;-74
2022/06/05 08:12:11;;;;;;;11.35;7.93;;;23.00;98.00;;;;;;5073321;28;20044;-73
2022/06/05 08:14:38;;;;;;;11.18;7.93;;;23.00;98.00;;;;;;5088984;28;20056;-75
2022/06/05 08:17:10;;;;;;;11.13;8.27;;;22.90;97.10;;;;;;5072297;28;20080;-75
2022/06/05 08:19:37;;;;;;;7.78;5.90;;;22.80;96.90;;;;;;5073288;28;20071;-74
2022/06/05 08:22:04;;;;;;;9.10;6.35;;;23.00;97.20;;;;;;5089136;28;20107;-74
2022/06/05 08:24:29;;;;;;;6.90;6.13;;;23.20;97.10;;;;;;5088822;28;20170;-74
2022/06/05 08:26:55;;;;;;;8.00;7.00;;;23.30;96.90;;;;;;5072343;28;20079;-74
2022/06/05 08:29:21;;;;;;;6.97;6.20;;;23.20;97.00;;;;;;5073466;28;20099;-74
2022/06/05 08:31:47;;;;;;;7.35;5.95;;;23.30;96.70;;;;;;5073191;28;20097;-74
2022/06/05 08:34:14;;;;;;;8.80;6.10;;;23.40;96.20;;;;;;5073457;28;20053;-74
2022/06/05 08:36:40;;;;;;;8.85;6.65;;;23.60;96.50;;;;;;5072235;28;20052;-75
2022/06/05 08:42:32;;;;;;;6.32;5.68;;;23.60;95.90;;;;;;5072579;28;20047;-74
2022/06/05 08:45:15;;;;;;;9.20;6.80;;;23.80;95.50;;;;;;5030449;28;20120;-73
2022/06/05 08:47:49;;;;;;;7.57;6.20;;;23.80;95.10;;;;;;5068871;28;20060;-74
2022/06/05 08:50:45;;;;;;;8.52;6.70;;;23.90;95.00;;;;;;5072599;28;20084;-74
2022/06/05 08:53:39;;;;;;;9.00;6.10;;;23.90;94.40;;;;;;5072644;28;20041;-73
2022/06/05 08:56:16;;;;;;;9.80;6.35;;;23.80;94.60;;;;;;5072424;28;20364;-75
2022/06/05 08:59:22;;;;;;;9.57;6.85;;;23.60;95.10;;;;;;5072704;28;20056;-74
2022/06/05 09:01:55;;;;;;;6.72;6.07;;;23.30;95.10;;;;;;5070815;28;20072;-73
2022/06/05 09:04:26;;;;;;;7.18;6.47;;;23.00;95.50;;;;;;5072555;28;20048;-73
2022/06/05 09:06:59;;;;;;;7.95;6.72;;;22.80;95.40;;;;;;5072761;28;20051;-75
2022/06/05 09:09:35;;;;;;;7.38;6.57;;;22.70;95.40;;;;;;5072549;28;20170;-74
2022/06/05 09:12:03;;;;;;;6.53;5.80;;;22.70;96.10;;;;;;5072830;28;20040;-73
2022/06/05 09:14:45;;;;;;;6.68;5.45;;;22.70;96.30;;;;;;5072442;28;20052;-74
2022/06/05 09:17:17;;;;;;;7.07;5.88;;;22.80;96.20;;;;;;5072711;28;20124;-74
2022/06/05 09:19:45;;;;;;;8.65;6.68;;;23.00;96.40;;;;;;5072231;28;20044;-74
2022/06/05 09:22:18;;;;;;;9.73;6.35;;;23.20;96.20;;;;;;5071974;28;20406;-73
2022/06/05 09:25:09;;;;;;;9.23;7.05;;;23.50;96.30;;;;;;5072979;28;20049;-73
2022/06/05 09:28:01;;;;;;;7.15;6.45;;;23.60;95.00;;;;;;5072129;28;20071;-75
2022/06/05 09:30:45;;;;;;;8.15;6.38;;;23.90;95.30;;;;;;5072606;28;20048;-74
2022/06/05 09:33:23;;;;;;;9.95;6.47;;;24.10;95.40;;;;;;5072200;28;20050;-75
2022/06/05 09:36:00;;;;;;;6.85;6.25;;;24.00;94.90;;;;;;5071725;28;20119;-73
2022/06/05 09:38:51;;;;;;;6.82;6.13;;;23.90;94.10;;;;;;5072475;28;20055;-74
2022/06/05 09:41:23;;;;;;;7.22;6.53;;;24.10;94.80;;;;;;5071078;28;20472;-73
2022/06/05 09:44:23;;;;;;;6.65;5.63;;;24.30;95.10;;;;;;5072358;28;20079;-74
2022/06/05 09:47:07;;;;;;;7.22;5.97;;;24.70;93.90;;;;;;5072528;28;20094;-74
2022/06/05 09:49:39;;;;;;;7.30;5.93;;;24.90;94.10;;;;;;5072119;28;20116;-74
2022/06/05 09:52:13;;;;;;;6.72;6.10;;;24.90;94.30;;;;;;5071862;28;20040;-75
2022/06/05 09:54:44;;;;;;;9.60;5.50;;;24.90;93.80;;;;;;5074449;28;20052;-74
2022/06/05 10:00:36;;;;;;;9.18;5.97;;;24.80;93.60;;;;;;5075669;28;20045;-73
2022/06/05 10:03:09;;;;;;;9.13;6.85;;;24.70;93.50;;;;;;5076217;28;20086;-74
2022/06/05 10:05:40;;;;;;;6.72;6.10;;;24.50;93.70;;;;;;5076374;28;20048;-74
2022/06/05 10:08:24;;;;;;;6.25;5.68;;;24.50;93.80;;;;;;5075876;28;20473;-75
2022/06/05 10:10:56;;;;;;;7.00;6.32;;;24.50;93.80;;;;;;5076303;28;20087;-74
2022/06/05 10:13:31;;;;;;;6.83;6.23;;;24.60;93.90;;;;;;5076336;28;20044;-74
2022/06/05 10:16:05;;;;;;;7.53;6.18;;;24.40;94.10;;;;;;5075690;28;20082;-78
2022/06/05 10:18:38;;;;;;;6.80;6.10;;;24.80;94.20;;;;;;5075827;28;20147;-75
2022/06/05 10:21:07;;;;;;;6.65;5.63;;;24.90;93.40;;;;;;5075376;28;20064;-74
2022/06/05 10:23:39;;;;;;;10.50;6.05;;;25.10;93.20;;;;;;5075438;28;20049;-74
2022/06/05 10:26:29;;;;;;;7.32;6.28;;;24.80;93.10;;;;;;5091547;28;20048;-74
2022/06/05 10:29:20;;;;;;;7.40;5.75;;;24.80;93.00;;;;;;5075375;28;20048;-74
2022/06/05 10:32:00;;;;;;;7.32;6.00;;;24.90;93.10;;;;;;5075279;28;20500;-74
2022/06/05 10:34:43;;;;;;;7.47;5.85;;;25.00;93.50;;;;;;5074492;28;20365;-75
2022/06/05 10:37:18;;;;;;;7.57;5.93;;;25.20;93.50;;;;;;5075410;28;20052;-74
2022/06/05 10:40:10;;;;;;;6.25;5.65;;;25.30;93.50;;;;;;5075630;28;20060;-74
2022/06/05 10:43:01;;;;;;;6.47;5.87;;;25.30;92.50;;;;;;5075703;28;20099;-74
2022/06/05 10:45:48;;;;;;;7.07;6.38;;;25.30;92.80;;;;;;5074881;28;20666;-73
2022/06/05 10:48:24;;;;;;;6.35;5.75;;;25.20;92.50;;;;;;5074787;28;20110;-72
2022/06/05 10:50:59;;;;;;;8.10;6.32;;;25.00;92.90;;;;;;5073705;28;20373;-73
2022/06/05 10:53:38;;;;;;;10.48;6.60;;;25.00;93.30;;;;;;5075008;28;20384;-73
2022/06/05 10:56:33;;;;;;;8.02;6.30;;;24.90;93.60;;;;;;5075335;28;20056;-72
2022/06/05 10:59:27;;;;;;;7.70;6.50;;;25.10;93.20;;;;;;5074105;28;20048;-73
2022/06/05 11:02:18;;;;;;;6.60;5.90;;;25.10;93.00;;;;;;5075114;28;20091;-72
2022/06/05 11:05:01;;;;;;;6.05;5.55;;;25.00;93.10;;;;;;5075050;28;20131;-75
2022/06/05 11:08:11;;;;;;;7.30;5.63;;;25.00;93.30;;;;;;5074603;28;20036;-75
2022/06/05 11:13:53;;;;;;;8.60;6.47;;;25.00;93.60;;;;;;5074902;28;20052;-76
2022/06/05 11:16:38;;;;;;;6.17;5.60;;;25.00;93.00;;;;;;5075165;28;20128;-76
2022/06/05 11:19:27;;;;;;;6.95;6.30;;;25.00;93.10;;;;;;5074346;28;20494;-75
2022/06/05 11:21:56;;;;;;;7.25;6.22;;;25.00;92.90;;;;;;5073109;28;20060;-75
2022/06/05 11:24:27;;;;;;;6.85;6.13;;;24.90;92.90;;;;;;5074171;28;20066;-75
2022/06/05 11:27:31;;;;;;;9.03;6.10;;;24.90;93.10;;;;;;5074494;28;20124;-76
2022/06/05 11:29:56;;;;;;;;;;;24.90;92.50;;;;;;5074344;28;20365;-76
2022/06/05 11:32:44;;;;;;;10.45;5.30;;;24.80;92.80;;;;;;5073823;28;19924;-75
2022/06/05 11:35:19;;;;;;;6.50;5.35;;;24.80;92.80;;;;;;5073765;28;20101;-75
2022/06/05 11:37:53;;;;;;;6.45;5.35;;;24.80;93.10;;;;;;5074259;28;20037;-76
2022/06/05 11:40:45;;;;;;;6.72;5.68;;;24.80;93.10;;;;;;5073647;28;20053;-76
2022/06/05 11:43:29;;;;;;;6.85;6.25;;;24.90;92.50;;;;;;5073868;28;20056;-76
2022/06/05 11:46:10;;;;;;;7.20;5.70;;;24.90;92.70;;;;;;5074075;28;20050;-76
2022/06/05 11:48:41;;;;;;;6.55;5.95;;;24.90;92.50;;;;;;5074096;28;20040;-75
2022/06/05 11:51:30;;;;;;;6.97;5.85;;;24.90;92.10;;;;;;5073394;28;20044;-75
2022/06/05 11:54:07;;;;;;;6.30;5.65;;;24.80;92.50;;;;;;5073509;28;20088;-76
2022/06/05 11:56:52;;;;;;;6.28;5.68;;;24.90;92.60;;;;;;5073480;28;20044;-76
2022/06/05 11:59:39;;;;;;;8.98;6.07;;;24.90;92.50;;;;;;5073585;28;20178;-73
2022/06/05 12:02:08;;;;;;;6.10;5.70;;;25.00;92.20;;;;;;5073226;28;20534;-75
2022/06/05 12:05:04;;;;;;;7.15;5.35;;;25.00;91.70;;;;;;5072956;28;20483;-75
2022/06/05 12:07:31;;;;;;;6.15;5.57;;;24.90;91.90;;;;;;5084892;28;20059;-74
2022/06/05 12:10:02;;;;;;;7.00;5.55;;;24.90;91.60;;;;;;5073589;28;20044;-74
2022/06/05 12:12:44;;;;;;;6.57;5.97;;;25.00;91.80;;;;;;5072601;28;20048;-74
2022/06/05 12:15:33;;;;;;;6.57;5.32;;;25.00;91.80;;;;;;5072867;28;20395;-74
2022/06/05 12:18:13;;;;;;;6.05;5.55;;;25.00;91.80;;;;;;5072864;28;20129;-76
2022/06/05 12:20:48;;;;;;;6.60;6.10;;;24.90;91.90;;;;;;5072939;28;20056;-76
2022/06/05 12:23:27;;;;;;;6.68;5.90;;;24.90;91.70;;;;;;5072792;28;20067;-74
2022/06/05 12:26:04;;;;;;;5.88;5.38;;;24.90;91.80;;;;;;5072963;28;20123;-73
2022/06/05 12:28:45;;;;;;;7.32;5.90;;;24.80;91.90;;;;;;5072888;28;20059;-74
2022/06/05 12:31:30;;;;;;;6.80;6.20;;;24.80;92.10;;;;;;5072560;28;20049;-77
2022/06/05 12:34:05;;;;;;;6.97;6.28;;;24.70;92.30;;;;;;5072659;28;20048;-75
2022/06/05 12:37:05;;;;;;;7.68;6.10;;;24.70;92.30;;;;;;5072684;28;20044;-76
2022/06/05 12:39:36;;;;;;;8.13;7.00;;;24.60;92.30;;;;;;5066387;28;20067;-72
2022/06/05 12:42:14;;;;;;;6.82;6.30;;;24.60;92.20;;;;;;5088159;28;20055;-74
2022/06/05 12:44:44;;;;;;;9.85;7.50;;;24.50;92.60;;;;;;5072479;28;20063;-74
2022/06/05 12:47:43;;;;;;;6.68;5.95;;;24.40;92.60;;;;;;5071349;28;20047;-72
2022/06/05 12:50:24;;;;;;;6.95;6.30;;;24.40;92.70;;;;;;5072603;28;20048;-73
2022/06/05 12:53:04;;;;;;;6.57;5.97;;;24.40;92.90;;;;;;5072175;28;20041;-73
2022/06/05 12:55:34;;;;;;;7.03;5.80;;;24.40;92.80;;;;;;5072606;28;20123;-74
2022/06/05 12:58:07;;;;;;;9.13;6.10;;;24.40;92.80;;;;;;5072147;28;20041;-75
2022/06/05 13:00:45;;;;;;;;;;;24.50;93.00;;;;;;5073045;28;20048;-73
2022/06/05 13:03:42;;;;;;;6.28;5.70;;;24.40;92.90;;;;;;5071372;28;19920;-74
2022/06/05 13:06:29;;;;;;;7.80;6.95;;;24.40;92.60;;;;;;5072295;28;20079;-76
2022/06/05 13:08:59;;;;;;;6.22;5.63;;;24.50;92.80;;;;;;5072605;28;20040;-76
2022/06/05 13:11:33;;;;;;;6.60;6.00;;;24.50;93.00;;;;;;5072557;28;20078;-74
2022/06/05 13:14:17;;;;;;;7.10;6.50;;;24.50;93.40;;;;;;5072690;28;20132;-76
2022/06/05 13:17:02;;;;;;;7.78;6.93;;;24.50;93.40;;;;;;5072153;28;20101;-73
2022/06/05 13:19:41;;;;;;;8.60;5.40;;;24.60;93.40;;;;;;5070915;28;20091;-75
2022/06/05 13:22:35;;;;;;;13.25;5.78;;;24.60;92.80;;;;;;5087439;28;20048;-75
2022/06/05 13:25:41;;;;;;;5.97;5.45;;;24.70;92.80;;;;;;5072228;28;20492;-74
2022/06/05 13:28:06;;;;;;;8.00;5.63;;;24.70;92.70;;;;;;5066231;28;20053;-73
2022/06/05 13:30:55;;;;;;;7.90;6.28;;;24.80;92.70;;;;;;5075530;28;20044;-72